Manuel Fernandes

Recruteur - Vizela
9 Oct 2027
Samedi
Processus

Personnalité

Adaptabilité (1) Ambition (19) Controverse (19) Loyauté (15) Pression (15) Professionnalisme (13) Sportivité (5) Tempérament (1)

Profil

Style d'entraînement Démocratique
Diplôme National B
Détermination 11
Gestion des joueurs 8
Motivation 6
Discipline 6
Satisfaction professionnelle
100%
Fatigue
0%
Rôle Recruteur
Salaire 54.0K p/s
Contrat 14.03.2029

Performance

Comportement Bon
Efficacité de l'entraînement
35%
Développement des joueurs
40%
Prévention des blessures
20%
Mise en place tactique
35%

Événements récents

A participé à une réunion de recrutement maintenant
A participé à une réunion de recrutement 7j
A participé à une réunion de recrutement 7j
A participé à une réunion de recrutement 7j
A participé à une réunion de recrutement 14j
A participé à une réunion de recrutement 14j
A participé à une réunion de recrutement 14j
A participé à une réunion de recrutement 21j

Suivi en cours

78
Joueur Club Statut Capacité Confiance Observé Dernière observation Dernier vote
Mathis Jangeal Famalicao Perdu 99 / 109 58% 1 28.06.2027 Approuver
Maeson King Blackpool Actif 109 / 112 40% 3 30.05.2027 -
Martim Cunha Porto Actif 102 / 105 40% 2 30.05.2027 -
Florentino Luís Ipswich Town Actif 146 / 144 40% 4 23.05.2027 -
Lamine Cissé Peterborough United Actif 118 / 125 40% 2 23.05.2027 -
Eduardo Felicíssimo Sporting CP Actif 118 / 123 67% 5 22.05.2027 Observer
Joel McGregor Swindon Town Actif 91 / 102 40% 1 22.05.2027 -
Riquelme Thompson-Jones Shrewsbury Town Actif 98 / 113 40% 3 21.05.2027 -
Tiago Freitas Benfica Actif 116 / 113 40% 2 21.05.2027 -
Zeidane Inoussa Swansea City Actif 131 / 126 40% 2 20.05.2027 -
Caleb Yirenkyi Coventry City Actif 144 / 139 40% 1 19.05.2027 -
Brooke Norton-Cuffy Hull City Actif 129 / 136 40% 1 18.05.2027 -
Gladson Sulemana Liberty Professionals Actif 96 / 99 40% 2 16.05.2027 -
Gonçalo Franco Swansea City Actif 119 / 126 40% 2 15.05.2027 -
Tony Springett Barnet Actif 101 / 107 40% 1 15.05.2027 -
Dinis Pinto Moreirense Actif 126 / 127 40% 2 13.05.2027 -
Lorougnon Gohi Académico de Viseu Actif 118 / 117 40% 5 11.05.2027 -
Finn Azaz Southampton Actif 120 / 126 40% 3 08.05.2027 -
Rumarn Burrell Queens Park Rangers Actif 116 / 120 40% 2 07.05.2027 -
Isaac Price West Bromwich Albion Actif 125 / 129 40% 1 06.05.2027 -
Rodrigo Ramos Feirense Actif 125 / 121 40% 1 05.05.2027 -
Daniel Kyerewaa Reading Actif 113 / 113 40% 2 04.05.2027 -
Koki Saito Queens Park Rangers Actif 125 / 125 40% 2 03.05.2027 -
Tshepang Moremi Orlando Pirates Actif 128 / 114 40% 1 03.05.2027 -
Lucas Jetten Cambuur Actif 101 / 124 40% 2 01.05.2027 -
Jofre Torrents Ajax Actif 119 / 123 40% 2 29.04.2027 -
Ali Ahmed Norwich City Actif 120 / 122 40% 1 29.04.2027 -
Luis Quintero Torreense Actif 138 / 129 40% 2 27.04.2027 -
Riley Owen Wycombe Wanderers Actif 110 / 103 40% 1 27.04.2027 -
Toni Tamarit Alverca Actif 110 / 125 40% 1 25.04.2027 -
Bakary Haïdara Hearts of Oak Actif 101 / 109 40% 2 23.04.2027 -
Dale Taylor Blackpool Actif 114 / 118 40% 1 23.04.2027 -
Helinho Toluca Actif 118 / 135 40% 3 22.04.2027 -
Welington Southampton Actif 132 / 125 40% 1 18.04.2027 -
Pietro Reggiori Pro Patria Actif 97 / 94 40% 1 18.04.2027 -
Juan Bezerra Zamalek Actif 105 / 118 40% 1 15.04.2027 -
João Teixeira Porto Actif 113 / 113 40% 3 14.04.2027 -
Juan María Alcedo Torreense Actif 114 / 111 40% 1 13.04.2027 -
Diogo Pinto Lusitânia Lourosa Actif 105 / 108 40% 1 11.04.2027 -
Figueiredo Alverca Actif 133 / 123 40% 1 10.04.2027 -
Jeon Jin-Woo Sheffield Wednesday Actif 132 / 130 40% 1 09.04.2027 -
Santi García Gil Vicente Actif 140 / 132 40% 1 08.04.2027 -
Daniel Júnior Nacional Actif 123 / 117 40% 3 05.04.2027 -
Ramón Terrats Getafe Actif 138 / 144 40% 1 04.04.2027 -
Ronald Swansea City Actif 126 / 128 40% 1 04.04.2027 -
João Simões Sporting CP Actif 123 / 138 40% 1 02.04.2027 -
Huguinho Botafogo Actif 95 / 103 40% 1 01.04.2027 -
Moncef Zekri Sporting CP Actif 102 / 108 67% 2 31.03.2027 Observer
Christos Mouzakitis Hull City Actif 122 / 133 40% 1 21.03.2027 -
Ole Pohlmann Rio Ave Actif 131 / 116 40% 2 20.03.2027 -
Leandro Martins Benfica Actif 87 / 93 40% 1 20.03.2027 -
Bastien Meupiyou Alverca Actif 124 / 119 40% 1 18.03.2027 -
Fernando Ceará Actif 121 / 117 40% 1 17.03.2027 -
Samuel Bamba Maritimo Actif 121 / 114 40% 2 16.03.2027 -
Simo Maritimo Actif 118 / 119 40% 1 16.03.2027 -
Abraham Marcus Estrela da Amadora Actif 115 / 126 40% 3 14.03.2027 -
Manu Pozo Torreense Actif 124 / 115 40% 1 08.03.2027 -
Vasco Santos Oliveirense Actif 97 / 90 40% 1 08.03.2027 -
Paulinho Fortaleza Actif 103 / 104 40% 1 07.03.2027 -
Relebohile Mofokeng Orlando Pirates Actif 116 / 127 40% 2 04.03.2027 -
Sam Curtis Swindon Town Actif 96 / 107 40% 1 04.03.2027 -
Vitão Atlético Mineiro Actif 98 / 112 40% 1 01.02.2027 -
Tiago Mamede Portimonense Actif 97 / 110 58% 1 02.01.2027 -
Kahiser Lenis Feirense Actif 105 / 106 40% 1 31.12.2026 -
Thierry Rendall Correia Venezia Actif 137 / 133 40% 2 30.12.2026 -
De Lucca Adana Demirspor Actif 121 / 126 40% 1 26.12.2026 -
Nabil Touaizi Alverca Actif 109 / 121 40% 1 23.12.2026 -
Wallace Yan Flamengo Actif 112 / 121 40% 2 20.12.2026 -
Tiago Ribeiro Millwall Actif 99 / 109 40% 1 20.11.2026 -
Tiago Dantas HNK Rijeka Actif 113 / 125 40% 1 19.11.2026 -
Rodrigo Pinheiro Famalicao Actif 133 / 119 40% 1 19.11.2026 -
António Eirô Lokomotiv Sofia Actif 108 / 101 40% 1 17.11.2026 -
Aldair Faustino Levski Actif 122 / 118 40% 1 17.11.2026 -
Mateus Fernandes Tottenham Actif 135 / 146 40% 1 08.10.2026 -
Jose Fontán Arouca Actif 113 / 129 40% 1 10.09.2026 -
Costinha Brighton Actif 138 / 132 40% 1 07.09.2026 -
Ricardo Alves Chaves Perdu 97 / 115 58% 1 31.08.2026 -
Kirill Klimov Feirense Actif 89 / 100 58% 1 10.08.2026 -